createdAt,value
2017-08-22T00:00:42.607Z,101013.79
2017-08-22T00:03:10.060Z,101016.66
2017-08-22T00:05:37.523Z,101018.62
2017-08-22T00:08:05.357Z,101021.42
2017-08-22T00:10:32.875Z,101015.06
2017-08-22T00:13:00.322Z,101021.23
2017-08-22T00:15:27.798Z,101009.83
2017-08-22T00:17:55.246Z,101017.94
2017-08-22T00:20:22.739Z,101013.13
2017-08-22T00:22:50.261Z,101019.00
2017-08-22T00:25:17.743Z,101020.64
2017-08-22T00:27:45.268Z,101015.23
2017-08-22T00:30:12.829Z,101014.88
2017-08-22T00:32:40.284Z,101020.28
2017-08-22T00:35:07.744Z,101019.63
2017-08-22T00:37:35.227Z,101017.25
2017-08-22T00:40:02.757Z,101013.75
2017-08-22T00:42:30.228Z,101012.76
2017-08-22T00:44:57.772Z,101016.61
2017-08-22T00:47:25.241Z,101014.13
2017-08-22T00:49:52.694Z,101016.98
2017-08-22T00:52:20.159Z,101019.80
2017-08-22T00:54:47.612Z,101024.73
2017-08-22T00:57:15.212Z,101025.20
2017-08-22T00:59:43.179Z,101024.50
2017-08-22T01:02:10.670Z,101021.71
2017-08-22T01:04:38.126Z,101014.00
2017-08-22T01:07:05.613Z,101017.00
2017-08-22T01:09:33.156Z,101026.69
2017-08-22T01:12:01.056Z,101025.11
2017-08-22T01:14:28.526Z,101020.08
2017-08-22T01:16:55.991Z,101030.34
2017-08-22T01:19:23.444Z,101028.97
2017-08-22T01:21:50.927Z,101029.25
2017-08-22T01:24:18.467Z,101028.05
2017-08-22T01:26:45.965Z,101019.91
2017-08-22T01:29:13.423Z,101027.34
2017-08-22T01:31:40.995Z,101019.91
2017-08-22T01:34:08.439Z,101022.83
2017-08-22T01:36:36.006Z,101018.85
2017-08-22T01:39:03.468Z,101016.44
2017-08-22T01:41:30.940Z,101018.28
2017-08-22T01:43:58.412Z,101018.73
2017-08-22T01:46:25.933Z,101015.48
2017-08-22T01:48:53.486Z,101016.05
2017-08-22T01:51:20.945Z,101015.17
2017-08-22T01:53:48.428Z,101019.41
2017-08-22T01:56:15.884Z,101013.91
2017-08-22T01:58:43.364Z,101012.05
2017-08-22T02:01:10.836Z,101011.62
2017-08-22T02:03:38.332Z,101009.24
2017-08-22T02:06:05.781Z,101007.28
2017-08-22T02:08:33.280Z,101012.88
2017-08-22T02:11:00.752Z,101012.30
2017-08-22T02:13:28.307Z,101013.63
2017-08-22T02:15:55.773Z,101007.75
2017-08-22T02:18:23.247Z,101011.84
2017-08-22T02:20:50.734Z,101010.19
2017-08-22T02:23:18.208Z,101015.80
2017-08-22T02:25:45.676Z,101014.52
2017-08-22T02:28:13.188Z,101013.87
2017-08-22T02:30:40.652Z,101014.95
2017-08-22T02:33:08.133Z,101013.41
2017-08-22T02:35:35.672Z,101011.27
2017-08-22T02:38:03.155Z,101009.73
2017-08-22T02:40:30.616Z,101016.84
2017-08-22T02:42:58.089Z,101017.09
2017-08-22T02:45:25.596Z,101012.90
2017-08-22T02:47:53.113Z,101018.62
2017-08-22T02:50:20.563Z,101015.56
2017-08-22T02:52:48.079Z,101019.55
2017-08-22T02:55:15.634Z,101017.26
2017-08-22T02:57:43.138Z,101011.08
2017-08-22T03:00:10.600Z,101012.08
2017-08-22T03:02:38.100Z,101011.81
2017-08-22T03:05:05.560Z,101008.72
2017-08-22T03:07:33.007Z,101011.05
2017-08-22T03:10:00.606Z,101013.73
2017-08-22T03:12:28.046Z,101009.34
2017-08-22T03:14:55.518Z,101013.07
2017-08-22T03:17:23.940Z,101012.14
2017-08-22T03:19:51.411Z,101014.84
2017-08-22T03:22:18.864Z,101016.63
2017-08-22T03:24:46.441Z,101008.83
2017-08-22T03:27:13.944Z,101015.20
2017-08-22T03:29:41.515Z,101013.75
2017-08-22T03:32:08.969Z,101011.84
2017-08-22T03:34:36.463Z,101014.46
2017-08-22T03:37:03.917Z,101014.98
2017-08-22T03:39:31.388Z,101018.02
2017-08-22T03:41:58.865Z,101016.72
2017-08-22T03:44:26.340Z,101017.93
2017-08-22T03:46:53.847Z,101017.23
2017-08-22T03:49:21.373Z,101024.63
2017-08-22T03:51:48.867Z,101020.92
2017-08-22T03:54:16.377Z,101021.16
2017-08-22T03:56:43.892Z,101021.21
2017-08-22T03:59:11.456Z,101022.59
2017-08-22T04:01:39.008Z,101023.69
2017-08-22T04:04:06.557Z,101033.48
2017-08-22T04:06:34.014Z,101022.78
2017-08-22T04:09:01.573Z,101018.34
2017-08-22T04:11:29.031Z,101020.62
2017-08-22T04:13:56.604Z,101024.76
2017-08-22T04:16:24.055Z,101019.61
2017-08-22T04:18:51.605Z,101018.14
2017-08-22T04:21:19.052Z,101020.19
2017-08-22T04:23:46.512Z,101024.23
2017-08-22T04:26:13.992Z,101019.06
2017-08-22T04:28:41.532Z,101027.59
2017-08-22T04:31:09.016Z,101030.65
2017-08-22T04:33:36.471Z,101038.09
2017-08-22T04:36:04.004Z,101031.75
2017-08-22T04:38:31.513Z,101029.73
2017-08-22T04:40:59.020Z,101033.29
2017-08-22T04:43:26.531Z,101034.39
2017-08-22T04:45:54.052Z,101043.73
2017-08-22T04:48:21.592Z,101038.52
2017-08-22T04:50:49.105Z,101040.16
2017-08-22T04:53:16.559Z,101041.47
2017-08-22T04:55:44.032Z,101037.03
2017-08-22T04:58:11.480Z,101037.20
2017-08-22T05:00:38.989Z,101037.34
2017-08-22T05:03:06.454Z,101040.57
2017-08-22T05:05:33.993Z,101037.02
2017-08-22T05:08:01.439Z,101037.14
2017-08-22T05:10:28.912Z,101038.05
2017-08-22T05:12:56.417Z,101040.33
2017-08-22T05:15:23.937Z,101041.53
2017-08-22T05:17:51.482Z,101040.55
2017-08-22T05:20:18.989Z,101044.30
2017-08-22T05:22:46.445Z,101039.20
2017-08-22T05:25:13.915Z,101036.57
2017-08-22T05:27:41.409Z,101044.73
2017-08-22T05:30:08.876Z,101039.48
2017-08-22T05:32:36.428Z,101043.63
2017-08-22T05:35:03.900Z,101041.92
2017-08-22T05:37:31.372Z,101045.77
2017-08-22T05:39:58.848Z,101038.76
2017-08-22T05:42:26.301Z,101038.44
2017-08-22T05:44:54.067Z,101044.61
2017-08-22T05:47:21.527Z,101041.61
2017-08-22T05:49:48.977Z,101032.30
2017-08-22T05:52:16.488Z,101030.37
2017-08-22T05:54:43.995Z,101037.77
2017-08-22T05:57:11.583Z,101030.24
2017-08-22T05:59:39.314Z,101029.89
2017-08-22T06:02:07.271Z,101027.39
2017-08-22T06:04:34.861Z,101021.00
2017-08-22T06:07:02.586Z,101020.69
2017-08-22T06:09:30.217Z,101017.82
2017-08-22T06:11:57.860Z,101025.12
2017-08-22T06:14:25.457Z,101022.46
2017-08-22T06:16:53.184Z,101013.28
2017-08-22T06:19:20.636Z,101016.46
2017-08-22T06:21:48.108Z,101010.31
2017-08-22T06:24:15.581Z,101015.83
2017-08-22T06:26:43.127Z,101012.72
2017-08-22T06:29:10.713Z,101009.28
2017-08-22T06:31:38.237Z,101008.19
2017-08-22T06:34:05.708Z,100998.78
2017-08-22T06:36:33.176Z,101001.86
2017-08-22T06:39:00.734Z,100997.28
2017-08-22T06:41:28.209Z,100994.84
2017-08-22T06:43:55.663Z,100995.66
2017-08-22T06:46:23.190Z,100988.87
2017-08-22T06:48:50.836Z,100991.23
2017-08-22T06:51:18.316Z,100989.42
2017-08-22T06:53:45.861Z,100989.02
2017-08-22T06:56:13.327Z,100985.74
2017-08-22T06:58:40.784Z,100989.36
2017-08-22T07:01:08.360Z,100991.38
2017-08-22T07:03:35.828Z,101004.30
2017-08-22T07:06:03.364Z,101001.02
2017-08-22T07:08:30.912Z,100997.64
2017-08-22T07:10:58.470Z,100998.83
2017-08-22T07:13:26.028Z,101004.08
2017-08-22T07:15:53.497Z,101001.97
2017-08-22T07:18:20.968Z,100999.81
2017-08-22T07:20:48.440Z,101005.09
2017-08-22T07:23:15.957Z,100995.32
2017-08-22T07:25:43.521Z,100989.85
2017-08-22T07:28:11.025Z,100992.52
2017-08-22T07:30:38.535Z,100987.12
2017-08-22T07:33:06.097Z,100986.47
2017-08-22T07:35:33.649Z,100979.67
2017-08-22T07:38:01.118Z,100982.39
2017-08-22T07:40:28.695Z,100980.55
2017-08-22T07:42:56.172Z,100988.72
2017-08-22T07:45:23.685Z,100988.06
2017-08-22T07:47:53.354Z,100992.05
2017-08-22T07:50:20.944Z,100981.83
2017-08-22T07:52:48.428Z,100990.14
2017-08-22T07:55:15.913Z,100999.28
2017-08-22T07:57:43.401Z,100996.66
2017-08-22T08:00:10.852Z,100994.33
2017-08-22T08:02:38.324Z,101002.44
2017-08-22T08:05:05.784Z,100998.70
2017-08-22T08:07:33.348Z,100993.31
2017-08-22T08:10:00.803Z,100991.08
2017-08-22T08:12:28.255Z,100987.91
2017-08-22T08:14:55.780Z,100993.76
2017-08-22T08:17:24.379Z,100995.34
2017-08-22T08:19:51.960Z,100990.59
2017-08-22T08:22:20.334Z,100991.38
2017-08-22T08:24:47.813Z,100984.16
2017-08-22T08:27:15.354Z,100981.91
2017-08-22T08:29:42.820Z,100978.72
2017-08-22T08:32:10.280Z,100979.70
2017-08-22T08:34:38.471Z,100975.00
2017-08-22T08:37:06.025Z,100983.30
2017-08-22T08:39:33.492Z,100979.78
2017-08-22T08:42:01.014Z,100970.64
2017-08-22T08:44:28.488Z,100969.60
2017-08-22T08:46:56.128Z,100972.91
2017-08-22T08:49:23.687Z,100973.38
2017-08-22T08:51:51.405Z,100964.97
2017-08-22T08:54:18.918Z,100959.88
2017-08-22T08:56:46.391Z,100967.60
2017-08-22T08:59:14.126Z,100964.08
2017-08-22T09:01:41.605Z,100969.13
2017-08-22T09:04:09.148Z,100969.48
2017-08-22T09:06:36.684Z,100975.84
2017-08-22T09:09:04.145Z,100972.92
2017-08-22T09:11:31.720Z,100968.23
2017-08-22T09:14:00.295Z,100964.42
2017-08-22T09:16:27.862Z,100964.16
2017-08-22T09:18:55.319Z,100963.95
2017-08-22T09:21:22.865Z,100960.20
2017-08-22T09:23:50.491Z,100968.19
2017-08-22T09:26:17.963Z,100957.76
2017-08-22T09:28:45.464Z,100952.72
2017-08-22T09:31:12.959Z,100946.88
2017-08-22T09:33:40.466Z,100944.28
2017-08-22T09:36:07.971Z,100949.05
2017-08-22T09:38:35.481Z,100946.77
2017-08-22T09:41:03.041Z,100936.52
2017-08-22T09:43:30.559Z,100934.86
2017-08-22T09:45:58.023Z,100925.05
2017-08-22T09:48:25.491Z,100927.05
2017-08-22T09:50:53.142Z,100919.64
2017-08-22T09:53:20.629Z,100918.19
2017-08-22T09:55:48.193Z,100919.98
2017-08-22T09:58:15.683Z,100916.59
2017-08-22T10:00:43.204Z,100912.47
2017-08-22T10:03:10.843Z,100908.08
2017-08-22T10:06:14.782Z,100899.16
2017-08-22T10:08:42.285Z,100897.56
2017-08-22T10:11:09.845Z,100897.06
2017-08-22T10:13:37.351Z,100889.13
2017-08-22T10:16:04.807Z,100893.30
2017-08-22T10:18:32.278Z,100897.36
2017-08-22T10:20:59.733Z,100897.69
2017-08-22T10:23:27.203Z,100896.44
2017-08-22T10:25:54.683Z,100897.28
2017-08-22T10:28:22.192Z,100893.89
2017-08-22T10:30:49.640Z,100886.74
2017-08-22T10:33:17.212Z,100888.41
2017-08-22T10:35:44.668Z,100883.25
2017-08-22T10:38:12.151Z,100880.64
2017-08-22T10:40:39.689Z,100875.53
2017-08-22T10:43:07.143Z,100874.96
2017-08-22T10:45:34.632Z,100874.84
2017-08-22T10:48:02.083Z,100871.86
2017-08-22T10:50:29.616Z,100868.61
2017-08-22T10:52:57.073Z,100864.64
2017-08-22T10:55:24.535Z,100868.88
2017-08-22T10:57:52.077Z,100869.68
2017-08-22T11:00:19.543Z,100866.59
2017-08-22T11:02:47.094Z,100861.09
2017-08-22T11:05:14.601Z,100865.20
2017-08-22T11:07:42.108Z,100859.16
2017-08-22T11:10:09.578Z,100859.86
2017-08-22T11:12:37.031Z,100861.05
2017-08-22T11:15:04.529Z,100862.41
2017-08-22T11:17:31.985Z,100851.63
2017-08-22T11:19:59.441Z,100849.02
2017-08-22T11:22:26.975Z,100841.94
2017-08-22T11:24:54.487Z,100848.74
2017-08-22T11:27:21.956Z,100842.09
2017-08-22T11:29:49.409Z,100839.74
2017-08-22T11:32:16.881Z,100834.33
2017-08-22T11:34:44.489Z,100833.13
2017-08-22T11:37:12.010Z,100830.66
2017-08-22T11:39:39.484Z,100828.06
2017-08-22T11:42:06.965Z,100826.87
2017-08-22T11:44:34.519Z,100824.88
2017-08-22T11:47:01.999Z,100824.86
2017-08-22T11:49:29.451Z,100828.38
2017-08-22T11:51:56.928Z,100823.05
2017-08-22T11:54:24.411Z,100817.66
2017-08-22T11:56:51.898Z,100817.16
2017-08-22T11:59:19.363Z,100813.02
2017-08-22T12:01:46.848Z,100807.80
2017-08-22T12:04:14.311Z,100812.52
2017-08-22T12:06:41.782Z,100808.62
2017-08-22T12:09:09.264Z,100810.59
2017-08-22T12:11:36.724Z,100806.02
2017-08-22T12:14:04.263Z,100806.06
2017-08-22T12:19:24.564Z,100803.50
2017-08-22T12:21:52.023Z,100794.11
2017-08-22T12:24:19.495Z,100793.94
2017-08-22T12:26:47.031Z,100799.92
2017-08-22T12:29:14.505Z,100797.65
2017-08-22T12:31:42.378Z,100793.48
2017-08-22T12:34:09.868Z,100793.64
2017-08-22T12:36:37.320Z,100790.21
2017-08-22T12:39:04.829Z,100782.07
2017-08-22T12:41:32.289Z,100780.09
2017-08-22T12:44:00.136Z,100777.69
2017-08-22T12:46:27.592Z,100777.48
2017-08-22T12:48:55.073Z,100773.68
2017-08-22T12:51:22.611Z,100773.97
2017-08-22T12:53:50.181Z,100770.75
2017-08-22T12:56:17.635Z,100771.52
2017-08-22T12:58:45.109Z,100769.33
2017-08-22T13:01:12.555Z,100768.96
2017-08-22T13:03:40.049Z,100761.25
2017-08-22T13:06:07.563Z,100762.36
2017-08-22T13:08:36.113Z,100756.17
2017-08-22T13:11:03.601Z,100764.22
2017-08-22T13:13:31.112Z,100762.73
2017-08-22T13:15:58.576Z,100760.97
2017-08-22T13:18:26.076Z,100760.59
2017-08-22T13:20:53.531Z,100761.95
2017-08-22T13:23:21.064Z,100760.65
2017-08-22T13:25:48.656Z,100763.73
2017-08-22T13:28:16.108Z,100760.01
2017-08-22T13:30:43.596Z,100761.44
2017-08-22T13:33:11.063Z,100763.81
2017-08-22T13:35:38.791Z,100762.77
2017-08-22T13:38:06.334Z,100758.61
2017-08-22T13:40:33.803Z,100754.09
2017-08-22T13:43:01.353Z,100758.98
2017-08-22T13:45:28.912Z,100753.80
2017-08-22T13:47:56.481Z,100757.30
2017-08-22T13:50:23.946Z,100753.84
2017-08-22T13:52:51.476Z,100751.44
2017-08-22T13:55:19.046Z,100745.53
2017-08-22T13:57:46.607Z,100741.95
2017-08-22T14:00:14.180Z,100747.03
2017-08-22T14:02:41.948Z,100740.02
2017-08-22T14:05:09.485Z,100747.13
2017-08-22T14:07:36.933Z,100751.91
2017-08-22T14:10:04.375Z,100751.13
2017-08-22T14:12:31.844Z,100752.90
2017-08-22T14:14:59.564Z,100749.01
2017-08-22T14:17:27.056Z,100741.86
2017-08-22T14:19:55.672Z,100746.86
2017-08-22T14:22:23.199Z,100744.42
2017-08-22T14:24:50.677Z,100740.66
2017-08-22T14:27:18.183Z,100740.59
2017-08-22T14:29:45.639Z,100740.52
2017-08-22T14:32:13.109Z,100732.08
2017-08-22T14:34:40.601Z,100727.42
2017-08-22T14:37:08.084Z,100723.11
2017-08-22T14:39:35.628Z,100714.75
2017-08-22T14:42:03.114Z,100720.27
2017-08-22T14:44:30.569Z,100726.94
2017-08-22T14:46:58.045Z,100717.64
2017-08-22T14:49:25.544Z,100716.48
2017-08-22T14:51:53.029Z,100712.30
2017-08-22T14:54:22.663Z,100711.39
2017-08-22T14:56:50.228Z,100706.77
2017-08-22T14:59:17.737Z,100715.34
2017-08-22T15:01:46.662Z,100710.00
2017-08-22T15:04:14.284Z,100708.94
2017-08-22T15:06:41.813Z,100705.49
2017-08-22T15:09:09.263Z,100699.00
2017-08-22T15:11:36.748Z,100694.03
2017-08-22T15:14:04.216Z,100695.32
2017-08-22T15:16:31.716Z,100685.31
2017-08-22T15:18:59.235Z,100683.23
2017-08-22T15:21:26.792Z,100681.42
2017-08-22T15:23:54.348Z,100685.52
2017-08-22T15:26:21.916Z,100686.44
2017-08-22T15:28:49.865Z,100678.78
2017-08-22T15:31:17.328Z,100682.98
2017-08-22T15:33:44.833Z,100686.23
2017-08-22T15:36:12.298Z,100686.70
2017-08-22T15:38:39.777Z,100684.84
2017-08-22T15:41:07.268Z,100682.88
2017-08-22T15:43:34.754Z,100686.23
2017-08-22T15:46:02.203Z,100688.12
2017-08-22T15:48:29.725Z,100686.47
2017-08-22T15:50:57.206Z,100682.62
2017-08-22T15:53:25.045Z,100687.09
2017-08-22T15:55:52.515Z,100686.77
2017-08-22T15:58:20.067Z,100683.63
2017-08-22T16:00:47.586Z,100683.73
2017-08-22T16:03:15.065Z,100677.16
2017-08-22T16:05:42.591Z,100683.06
2017-08-22T16:08:10.069Z,100678.20
2017-08-22T16:10:37.546Z,100674.36
2017-08-22T16:13:05.135Z,100670.34
2017-08-22T16:15:32.682Z,100663.27
2017-08-22T16:18:00.204Z,100661.39
2017-08-22T16:20:27.680Z,100661.83
2017-08-22T16:22:55.119Z,100665.16
2017-08-22T16:25:22.616Z,100658.78
2017-08-22T16:27:50.063Z,100657.61
2017-08-22T16:30:17.539Z,100655.47
2017-08-22T16:32:45.002Z,100657.54
2017-08-22T16:35:12.525Z,100649.42
2017-08-22T16:37:39.975Z,100647.41
2017-08-22T16:40:07.453Z,100644.09
2017-08-22T16:42:35.103Z,100639.48
2017-08-22T16:45:02.669Z,100639.34
2017-08-22T16:47:30.121Z,100637.36
2017-08-22T16:49:57.619Z,100641.20
2017-08-22T16:52:25.087Z,100644.63
2017-08-22T16:54:52.569Z,100636.56
2017-08-22T16:57:20.037Z,100632.90
2017-08-22T16:59:47.546Z,100625.43
2017-08-22T17:02:15.001Z,100632.38
2017-08-22T17:04:42.476Z,100629.02
2017-08-22T17:07:09.979Z,100632.11
2017-08-22T17:09:37.476Z,100619.66
2017-08-22T17:12:04.989Z,100623.09
2017-08-22T17:14:32.556Z,100629.89
2017-08-22T17:17:00.099Z,100623.58
2017-08-22T17:19:28.291Z,100626.80
2017-08-22T17:21:55.833Z,100628.66
2017-08-22T17:24:23.397Z,100624.53
2017-08-22T17:26:50.845Z,100622.30
2017-08-22T17:29:18.404Z,100615.09
2017-08-22T17:31:45.963Z,100614.81
2017-08-22T17:34:13.465Z,100614.45
2017-08-22T17:36:40.977Z,100614.59
2017-08-22T17:39:08.419Z,100613.06
2017-08-22T17:41:35.899Z,100612.75
2017-08-22T17:44:03.352Z,100609.02
2017-08-22T17:46:30.859Z,100607.82
2017-08-22T17:48:58.367Z,100608.52
2017-08-22T17:51:25.886Z,100609.87
2017-08-22T17:53:53.357Z,100609.64
2017-08-22T17:56:20.880Z,100607.91
2017-08-22T17:58:48.352Z,100616.92
2017-08-22T18:01:15.852Z,100612.17
2017-08-22T18:03:43.423Z,100615.31
2017-08-22T18:06:10.978Z,100606.80
2017-08-22T18:08:38.525Z,100612.90
2017-08-22T18:11:06.100Z,100612.70
2017-08-22T18:13:33.596Z,100615.99
2017-08-22T18:16:01.096Z,100616.13
2017-08-22T18:18:28.587Z,100617.55
2017-08-22T18:20:56.123Z,100621.97
2017-08-22T18:23:23.587Z,100623.80
2017-08-22T18:25:51.105Z,100625.19
2017-08-22T18:28:18.607Z,100626.34
2017-08-22T18:30:46.148Z,100629.48
2017-08-22T18:33:13.621Z,100633.02
2017-08-22T18:35:41.501Z,100632.63
2017-08-22T18:38:09.029Z,100638.84
2017-08-22T18:40:36.512Z,100634.90
2017-08-22T18:43:03.975Z,100629.77
2017-08-22T18:45:31.459Z,100629.72
2017-08-22T18:47:58.964Z,100633.62
2017-08-22T18:50:26.439Z,100634.37
2017-08-22T18:52:53.892Z,100645.83
2017-08-22T18:55:21.439Z,100638.20
2017-08-22T18:57:48.983Z,100639.81
2017-08-22T19:00:16.427Z,100639.84
2017-08-22T19:02:44.009Z,100644.27
2017-08-22T19:05:11.532Z,100641.58
2017-08-22T19:07:39.002Z,100636.60
2017-08-22T19:10:06.503Z,100637.61
2017-08-22T19:12:34.039Z,100634.00
2017-08-22T19:15:01.539Z,100639.88
2017-08-22T19:17:29.044Z,100643.33
2017-08-22T19:19:56.513Z,100633.30
2017-08-22T19:22:24.008Z,100637.63
2017-08-22T19:24:51.516Z,100636.42
2017-08-22T19:27:19.003Z,100635.12
2017-08-22T19:29:46.524Z,100630.39
2017-08-22T19:32:14.007Z,100641.34
2017-08-22T19:34:41.480Z,100637.08
2017-08-22T19:37:08.999Z,100635.06
2017-08-22T19:39:36.460Z,100640.01
2017-08-22T19:42:03.931Z,100634.61
2017-08-22T19:44:31.474Z,100640.89
2017-08-22T19:46:58.984Z,100641.10
2017-08-22T19:49:27.277Z,100635.88
2017-08-22T19:51:54.869Z,100637.48
2017-08-22T19:54:22.323Z,100634.90
2017-08-22T19:56:49.817Z,100632.16
2017-08-22T19:59:17.306Z,100626.27
2017-08-22T20:01:44.801Z,100633.01
2017-08-22T20:04:12.617Z,100637.72
2017-08-22T20:06:40.361Z,100636.24
2017-08-22T20:09:08.069Z,100636.54
2017-08-22T20:11:35.578Z,100638.53
2017-08-22T20:14:03.250Z,100641.99
2017-08-22T20:16:30.938Z,100639.56
2017-08-22T20:18:58.525Z,100643.34
2017-08-22T20:21:26.217Z,100648.03
2017-08-22T20:23:53.748Z,100656.78
2017-08-22T20:26:21.468Z,100648.97
2017-08-22T20:28:48.985Z,100655.64
2017-08-22T20:31:16.534Z,100647.04
2017-08-22T20:33:44.005Z,100644.19
2017-08-22T20:36:11.534Z,100645.70
2017-08-22T20:38:39.155Z,100645.04
2017-08-22T20:41:06.657Z,100641.47
2017-08-22T20:43:34.481Z,100637.16
2017-08-22T20:46:02.351Z,100627.59
2017-08-22T20:48:30.266Z,100631.09
2017-08-22T20:50:58.167Z,100627.23
2017-08-22T20:53:25.834Z,100623.99
2017-08-22T20:55:53.394Z,100623.55
2017-08-22T20:58:21.003Z,100628.98
2017-08-22T21:00:48.458Z,100633.52
2017-08-22T21:03:16.017Z,100637.66
2017-08-22T21:05:43.833Z,100644.44
2017-08-22T21:08:11.734Z,100645.65
2017-08-22T21:10:39.205Z,100649.45
2017-08-22T21:13:06.687Z,100654.82
2017-08-22T21:15:34.231Z,100655.43
2017-08-22T21:18:01.793Z,100653.16
2017-08-22T21:20:29.403Z,100648.00
2017-08-22T21:22:56.987Z,100643.91
2017-08-22T21:25:24.445Z,100636.13
2017-08-22T21:27:51.929Z,100629.14
2017-08-22T21:30:19.495Z,100635.02
2017-08-22T21:32:47.031Z,100633.28
2017-08-22T21:35:14.613Z,100633.10
2017-08-22T21:37:42.068Z,100640.22
2017-08-22T21:40:09.599Z,100630.75
2017-08-22T21:42:37.067Z,100626.16
2017-08-22T21:45:04.641Z,100627.80
2017-08-22T21:47:32.093Z,100627.32
2017-08-22T21:49:59.643Z,100629.19
2017-08-22T21:52:27.193Z,100625.23
2017-08-22T21:54:54.675Z,100628.19
2017-08-22T21:57:22.125Z,100627.42
2017-08-22T21:59:49.573Z,100624.61
2017-08-22T22:02:17.120Z,100631.47
2017-08-22T22:04:44.671Z,100625.84
2017-08-22T22:07:12.139Z,100623.64
2017-08-22T22:09:39.687Z,100622.03
2017-08-22T22:12:07.253Z,100617.78
2017-08-22T22:14:34.808Z,100619.33
2017-08-22T22:17:02.367Z,100617.84
2017-08-22T22:19:29.825Z,100617.09
2017-08-22T22:21:57.391Z,100612.27
2017-08-22T22:24:24.956Z,100613.81
2017-08-22T22:26:52.513Z,100615.20
2017-08-22T22:29:19.988Z,100610.92
2017-08-22T22:31:47.493Z,100614.05
2017-08-22T22:34:14.957Z,100612.60
2017-08-22T22:36:42.588Z,100615.27
2017-08-22T22:39:10.096Z,100611.88
2017-08-22T22:41:37.659Z,100609.20
2017-08-22T22:44:05.391Z,100611.58
2017-08-22T22:46:32.869Z,100607.56
2017-08-22T22:49:00.331Z,100614.95
2017-08-22T22:51:27.800Z,100608.34
2017-08-22T22:53:55.267Z,100615.98
2017-08-22T22:56:22.779Z,100610.35
2017-08-22T22:58:50.308Z,100606.63
2017-08-22T23:01:17.810Z,100615.02
2017-08-22T23:03:45.259Z,100621.44
2017-08-22T23:06:12.723Z,100622.88
2017-08-22T23:08:40.572Z,100621.25
2017-08-22T23:11:08.061Z,100625.39
2017-08-22T23:13:35.580Z,100626.99
2017-08-22T23:16:03.064Z,100620.63
2017-08-22T23:18:30.620Z,100621.45
2017-08-22T23:20:58.079Z,100627.14
2017-08-22T23:23:25.552Z,100618.92
2017-08-22T23:25:53.092Z,100619.89
2017-08-22T23:28:20.643Z,100618.91
2017-08-22T23:30:48.117Z,100615.69
2017-08-22T23:33:15.670Z,100614.51
2017-08-22T23:35:43.111Z,100617.54
2017-08-22T23:38:10.583Z,100612.27
2017-08-22T23:40:38.177Z,100619.16
2017-08-22T23:43:05.712Z,100625.04
2017-08-22T23:45:33.171Z,100621.38
2017-08-22T23:48:00.720Z,100625.98
2017-08-22T23:50:28.183Z,100625.75
2017-08-22T23:52:55.634Z,100624.59
2017-08-22T23:55:23.159Z,100624.17
2017-08-22T23:57:50.615Z,100618.12
